Time;durP1;ratioP1;P1;durP2;ratioP2;P2;SDS_P1;SDS_P2;PMS_P1;PMS_P2;Temp;Humidity;BMP_temperature;BMP_pressure;BME280_temperature;BME280_humidity;BME280_pressure;Samples;Min_cycle;Max_cycle;Signal;HPM_P1;HPM_P2
2022/04/07 07:58:45;;;;;;;3.97;1.75;;;;;;;6.81;100.00;98246.00;5273313;28;20408;-69
2022/04/07 08:01:17;;;;;;;1.48;1.10;;;;;;;6.99;100.00;98230.22;5270380;28;20496;-70
2022/04/07 08:03:48;;;;;;;2.50;1.20;;;;;;;6.88;100.00;98225.06;5259585;28;20071;-70
2022/04/07 08:06:19;;;;;;;2.85;1.10;;;;;;;6.99;100.00;98205.41;5279262;28;20117;-70
2022/04/07 08:08:51;;;;;;;2.17;1.20;;;;;;;7.21;100.00;98212.59;5280119;28;20429;-70
2022/04/07 08:11:22;;;;;;;2.80;1.15;;;;;;;7.12;100.00;98224.47;5279218;28;20031;-70
2022/04/07 08:13:53;;;;;;;3.70;1.17;;;;;;;7.24;100.00;98223.00;5279572;28;20428;-70
2022/04/07 08:16:25;;;;;;;2.75;1.20;;;;;;;7.28;99.94;98202.69;5277503;28;20123;-70
2022/04/07 08:18:56;;;;;;;1.70;1.20;;;;;;;7.36;98.92;98207.38;5277333;28;20483;-70
2022/04/07 08:21:28;;;;;;;2.10;1.20;;;;;;;7.42;99.02;98204.41;5279955;28;20342;-69
2022/04/07 08:23:59;;;;;;;4.30;1.52;;;;;;;7.38;98.37;98213.31;5279287;28;20025;-69
2022/04/07 08:26:30;;;;;;;4.32;1.40;;;;;;;7.44;99.33;98215.91;5276839;28;20072;-70
2022/04/07 08:29:02;;;;;;;2.45;1.75;;;;;;;7.55;99.79;98206.13;5263698;28;20080;-69
2022/04/07 08:31:34;;;;;;;3.40;1.27;;;;;;;7.48;99.73;98200.31;5267577;28;20029;-70
2022/04/07 08:34:05;;;;;;;3.40;1.20;;;;;;;7.52;100.00;98201.28;5262591;28;20122;-70
2022/04/07 08:36:37;;;;;;;3.88;1.20;;;;;;;7.65;100.00;98219.53;5264095;28;20025;-70
2022/04/07 08:39:08;;;;;;;2.05;1.27;;;;;;;7.74;100.00;98211.19;5263705;28;20031;-71
2022/04/07 08:41:42;;;;;;;2.72;1.60;;;;;;;7.79;100.00;98206.25;5278986;28;20025;-72
2022/04/07 08:44:17;;;;;;;2.75;1.60;;;;;;;7.80;100.00;98207.91;5275617;28;20494;-71
2022/04/07 08:46:53;;;;;;;5.78;2.03;;;;;;;7.87;100.00;98195.50;5257235;28;20465;-70
2022/04/07 08:49:27;;;;;;;3.38;1.55;;;;;;;7.92;100.00;98189.78;5274858;28;20052;-70
2022/04/07 08:51:58;;;;;;;5.50;1.60;;;;;;;7.90;100.00;98183.78;5271885;28;20021;-70
2022/04/07 08:54:30;;;;;;;4.32;1.85;;;;;;;7.95;100.00;98191.88;5290911;28;20051;-70
2022/04/07 08:57:03;;;;;;;3.33;1.70;;;;;;;8.04;100.00;98192.63;5278295;28;20047;-71
2022/04/07 08:59:35;;;;;;;3.95;1.70;;;;;;;8.16;100.00;98198.19;5276028;28;20078;-71
2022/04/07 09:02:08;;;;;;;2.70;1.65;;;;;;;8.27;100.00;98196.63;5266919;28;20426;-70
2022/04/07 09:04:40;;;;;;;3.58;1.67;;;;;;;8.40;100.00;98205.00;5278070;28;20115;-69
2022/04/07 09:07:13;;;;;;;2.65;1.60;;;;;;;8.50;100.00;98196.28;5266943;28;20039;-69
2022/04/07 09:09:44;;;;;;;4.18;1.90;;;;;;;8.62;100.00;98192.75;5272696;28;20032;-68
2022/04/07 09:12:22;;;;;;;3.97;1.77;;;;;;;8.64;100.00;98185.75;5278717;28;20020;-71
2022/04/07 09:14:59;;;;;;;5.63;1.90;;;;;;;8.76;100.00;98197.97;5264280;28;20040;-72
2022/04/07 09:17:47;;;;;;;3.65;1.75;;;;;;;8.78;100.00;98190.94;5269970;28;20033;-71
2022/04/07 09:20:20;;;;;;;4.60;2.28;;;;;;;8.87;100.00;98201.91;5279410;28;20541;-71
2022/04/07 09:22:56;;;;;;;4.10;2.40;;;;;;;8.93;100.00;98208.84;5274228;28;20107;-71
2022/04/07 09:25:27;;;;;;;4.03;3.05;;;;;;;9.05;100.00;98197.81;5268671;28;20075;-71
2022/04/07 09:28:00;;;;;;;3.75;3.40;;;;;;;9.17;100.00;98210.81;5279368;28;20029;-72
2022/04/07 09:30:38;;;;;;;6.53;4.15;;;;;;;9.29;100.00;98194.22;5267292;28;20036;-73
2022/04/07 09:33:26;;;;;;;7.22;4.47;;;;;;;9.44;100.00;98206.56;5276641;28;20463;-72
2022/04/07 09:36:01;;;;;;;5.95;5.10;;;;;;;9.55;99.04;98206.91;5267952;28;20460;-74
2022/04/07 09:38:34;;;;;;;5.32;4.82;;;;;;;9.71;98.61;98220.84;5282575;28;20024;-74
2022/04/07 09:41:09;;;;;;;4.13;3.70;;;;;;;9.65;93.98;98213.94;5269516;28;20060;-71
2022/04/07 09:43:42;;;;;;;5.50;4.05;;;;;;;9.65;92.64;98211.97;5276790;28;20119;-71
2022/04/07 09:46:20;;;;;;;5.32;2.88;;;;;;;9.62;90.44;98222.94;5267523;28;20078;-70
2022/04/07 09:49:07;;;;;;;3.53;2.47;;;;;;;9.69;84.89;98223.13;5256718;28;20029;-68
2022/04/07 09:51:46;;;;;;;5.03;2.58;;;;;;;9.73;85.76;98224.88;5275774;28;20428;-68
2022/04/07 09:54:18;;;;;;;4.47;2.50;;;;;;;9.74;84.23;98214.59;5267595;28;20017;-70
2022/04/07 09:56:50;;;;;;;3.85;2.30;;;;;;;9.77;82.64;98206.41;5272503;28;20570;-70
2022/04/07 09:59:22;;;;;;;5.13;2.72;;;;;;;9.91;82.18;98203.28;5264716;28;20105;-70
2022/04/07 10:01:55;;;;;;;4.60;2.83;;;;;;;10.02;82.64;98207.19;5267778;28;20082;-70
2022/04/07 10:04:27;;;;;;;6.15;3.33;;;;;;;10.14;84.17;98206.31;5272108;28;20024;-69
2022/04/07 10:07:01;;;;;;;5.22;2.88;;;;;;;10.05;83.05;98213.97;5273032;28;20077;-69
2022/04/07 10:09:33;;;;;;;4.10;2.97;;;;;;;10.05;83.37;98213.97;5257124;28;20024;-68
2022/04/07 10:12:05;;;;;;;4.75;3.03;;;;;;;9.94;81.53;98215.59;5257364;28;20035;-68
2022/04/07 10:14:37;;;;;;;3.50;2.42;;;;;;;9.82;77.43;98208.16;5275203;28;20037;-68
2022/04/07 10:17:13;;;;;;;3.38;2.38;;;;;;;9.85;77.61;98229.59;5254435;28;20380;-68
2022/04/07 10:20:00;;;;;;;3.47;2.40;;;;;;;9.89;74.27;98233.25;5255754;28;20112;-68
2022/04/07 10:23:03;;;;;;;2.97;2.20;;;;;;;9.91;69.64;98230.94;5276574;28;20477;-68
2022/04/07 10:25:39;;;;;;;7.15;2.20;;;;;;;10.08;70.07;98226.31;5270795;28;20131;-67
2022/04/07 10:28:11;;;;;;;5.10;1.98;;;;;;;10.29;69.26;98226.16;5250133;28;20028;-67
2022/04/07 10:30:53;;;;;;;9.40;5.53;;;;;;;10.48;69.98;98233.81;5274500;28;20035;-68
2022/04/07 10:33:46;;;;;;;6.53;4.20;;;;;;;10.55;68.70;98236.81;5248178;28;20595;-68
2022/04/07 10:36:19;;;;;;;7.63;2.10;;;;;;;10.55;65.10;98242.34;5245346;28;20484;-69
2022/04/07 10:38:52;;;;;;;5.88;1.83;;;;;;;10.74;66.86;98244.47;5258321;28;20025;-70
2022/04/07 10:41:36;;;;;;;5.35;1.80;;;;;;;10.85;67.15;98251.09;5260242;28;20033;-70
2022/04/07 10:44:11;;;;;;;6.55;1.92;;;;;;;10.95;66.40;98255.34;5254075;28;20084;-70
2022/04/07 10:46:43;;;;;;;4.32;1.92;;;;;;;10.99;67.60;98265.38;5258964;28;20063;-70
2022/04/07 10:49:24;;;;;;;8.55;2.00;;;;;;;10.80;67.51;98281.84;5256161;28;20087;-70
2022/04/07 10:51:58;;;;;;;8.38;3.28;;;;;;;10.65;67.11;98283.41;5267904;28;20102;-70
2022/04/07 10:54:30;;;;;;;6.32;3.08;;;;;;;10.59;65.79;98280.09;5254780;28;20029;-70
2022/04/07 10:57:01;;;;;;;12.40;5.90;;;;;;;10.42;64.97;98275.63;5265906;28;20476;-70
2022/04/07 10:59:34;;;;;;;10.20;2.15;;;;;;;10.43;64.53;98280.03;5252935;28;20550;-70
2022/04/07 11:02:09;;;;;;;13.02;4.65;;;;;;;10.55;65.03;98298.56;5255867;28;20384;-71
2022/04/07 11:05:03;;;;;;;8.35;2.90;;;;;;;10.71;64.83;98289.50;5252989;28;20079;-70
2022/04/07 11:07:50;;;;;;;7.53;2.10;;;;;;;10.87;64.96;98299.50;5253371;28;20032;-70
2022/04/07 11:10:47;;;;;;;9.52;2.63;;;;;;;10.98;61.96;98313.66;5255857;28;20032;-70
2022/04/07 11:13:42;;;;;;;4.28;2.05;;;;;;;10.71;60.70;98322.78;5272248;28;20028;-70
2022/04/07 11:16:36;;;;;;;7.15;3.58;;;;;;;10.71;61.91;98322.78;5250762;28;20028;-70
2022/04/07 11:19:30;;;;;;;9.80;2.67;;;;;;;10.78;62.22;98332.09;5254256;28;20022;-69
2022/04/07 11:22:09;;;;;;;12.63;3.67;;;;;;;10.84;60.93;98332.69;5252040;28;20483;-70
2022/04/07 11:24:44;;;;;;;9.40;2.35;;;;;;;10.99;62.53;98331.09;5251142;28;20043;-69
2022/04/07 11:27:35;;;;;;;9.40;2.92;;;;;;;10.76;62.84;98353.84;5242313;28;20029;-69
2022/04/07 11:30:08;;;;;;;9.10;4.95;;;;;;;10.93;63.11;98344.41;5251539;28;20043;-69
2022/04/07 11:33:13;;;;;;;6.85;3.17;;;;;;;11.10;61.09;98369.06;5267984;28;20492;-68
2022/04/07 11:36:03;;;;;;;12.00;2.85;;;;;;;10.90;58.87;98360.97;5256447;28;20049;-68
2022/04/07 11:38:43;;;;;;;9.05;2.97;;;;;;;10.57;58.71;98361.97;5275148;28;20071;-69
2022/04/07 11:41:16;;;;;;;5.50;2.58;;;;;;;10.45;59.43;98388.53;5258729;28;20460;-68
2022/04/07 11:43:50;;;;;;;12.63;3.45;;;;;;;10.59;59.89;98387.38;5268121;28;20024;-69
2022/04/07 11:46:30;;;;;;;8.18;2.72;;;;;;;10.64;60.77;98384.38;5261454;28;20052;-69
2022/04/07 11:49:04;;;;;;;8.65;3.17;;;;;;;10.50;59.80;98358.97;5281747;28;20183;-69
2022/04/07 11:51:36;;;;;;;9.00;4.07;;;;;;;10.74;61.63;98383.09;5258382;28;20377;-68
2022/04/07 11:54:07;;;;;;;9.23;2.33;;;;;;;11.08;60.92;98382.47;5266872;28;20491;-68
2022/04/07 11:56:39;;;;;;;14.38;5.57;;;;;;;10.91;58.47;98381.97;5272893;28;20052;-69
2022/04/07 11:59:12;;;;;;;9.52;3.60;;;;;;;11.00;59.05;98388.19;5266883;28;20069;-69
2022/04/07 12:01:44;;;;;;;7.85;2.95;;;;;;;10.86;56.56;98397.72;5242918;28;20472;-69
2022/04/07 12:04:16;;;;;;;6.15;2.47;;;;;;;11.01;56.67;98398.13;5247718;28;20041;-69
2022/04/07 12:06:48;;;;;;;6.60;2.30;;;;;;;10.96;57.82;98374.22;5254793;28;20033;-70
2022/04/07 12:09:19;;;;;;;9.52;3.15;;;;;;;10.88;58.56;98392.59;5245781;28;20029;-68
2022/04/07 12:11:51;;;;;;;9.68;3.58;;;;;;;11.13;57.63;98403.63;5262926;28;20037;-68
2022/04/07 12:14:24;;;;;;;7.28;3.20;;;;;;;11.29;56.72;98385.03;5273611;28;20505;-70
2022/04/07 12:16:56;;;;;;;12.32;3.05;;;;;;;11.35;57.42;98393.94;5264828;28;20116;-69
2022/04/07 12:19:50;;;;;;;8.40;3.22;;;;;;;11.21;57.84;98422.09;5267160;28;20108;-69
2022/04/07 12:22:29;;;;;;;8.35;3.85;;;;;;;10.95;56.17;98432.81;5256189;28;20055;-69
2022/04/07 12:25:06;;;;;;;11.48;3.85;;;;;;;10.94;56.07;98422.88;5270180;28;20025;-68
2022/04/07 12:27:37;;;;;;;15.15;3.88;;;;;;;11.00;55.43;98443.66;5251118;28;20030;-68
2022/04/07 12:30:11;;;;;;;10.70;2.60;;;;;;;10.81;55.68;98439.56;5276473;28;20025;-68
2022/04/07 12:32:46;;;;;;;10.60;3.60;;;;;;;10.83;56.13;98439.97;5249097;28;20452;-69
2022/04/07 12:35:18;;;;;;;12.15;3.60;;;;;;;10.78;56.19;98440.22;5267908;28;20031;-69
2022/04/07 12:37:49;;;;;;;5.90;2.53;;;;;;;10.71;55.96;98426.16;5260308;28;20045;-70
2022/04/07 12:40:29;;;;;;;6.93;2.72;;;;;;;10.58;56.52;98449.50;5276362;28;20492;-70
2022/04/07 12:43:01;;;;;;;9.57;3.97;;;;;;;10.51;57.58;98463.94;5272266;28;20239;-69
2022/04/07 12:45:33;;;;;;;10.77;3.15;;;;;;;10.48;58.35;98448.03;5267699;28;20112;-68
2022/04/07 12:48:06;;;;;;;9.48;2.83;;;;;;;10.57;58.72;98456.22;5268167;28;20025;-69
2022/04/07 12:50:38;;;;;;;11.82;4.03;;;;;;;10.51;59.08;98463.16;5269558;28;20046;-69
2022/04/07 12:53:34;;;;;;;11.43;4.32;;;;;;;10.53;59.52;98463.59;5270783;28;20025;-69
2022/04/07 12:56:19;;;;;;;8.07;3.42;;;;;;;10.59;58.83;98492.69;5280759;28;20069;-70
2022/04/07 12:59:00;;;;;;;8.85;3.38;;;;;;;10.62;59.36;98478.94;5266553;28;20056;-69
2022/04/07 13:01:32;;;;;;;12.50;2.88;;;;;;;10.57;57.46;98473.63;5258674;28;20120;-72
2022/04/07 13:04:10;;;;;;;9.18;3.15;;;;;;;10.47;57.10;98467.75;5273225;28;20103;-73
2022/04/07 13:06:41;;;;;;;10.50;3.10;;;;;;;10.48;58.26;98463.81;5269907;28;20076;-74
2022/04/07 13:09:14;;;;;;;7.72;3.53;;;;;;;10.32;57.82;98472.81;5279759;28;20056;-72
2022/04/07 13:11:45;;;;;;;12.60;3.25;;;;;;;10.37;58.57;98442.13;5268957;28;20362;-70
2022/04/07 13:14:16;;;;;;;11.75;3.08;;;;;;;10.39;58.82;98484.16;5283873;28;20032;-70
2022/04/07 13:16:47;;;;;;;7.80;3.22;;;;;;;10.49;59.76;98495.94;5282580;28;20111;-70
2022/04/07 13:19:19;;;;;;;11.30;3.47;;;;;;;10.55;59.32;98489.00;5271031;28;20040;-74
2022/04/07 13:21:50;;;;;;;7.90;2.58;;;;;;;10.60;58.84;98488.75;5280279;28;20528;-73
2022/04/07 13:24:21;;;;;;;13.95;3.97;;;;;;;10.59;59.07;98492.69;5255801;28;20017;-73
2022/04/07 13:26:52;;;;;;;12.57;3.70;;;;;;;10.58;58.23;98493.84;5275244;28;20044;-73
2022/04/07 13:29:24;;;;;;;10.50;3.50;;;;;;;10.65;59.25;98492.09;5275414;28;20182;-73
2022/04/07 13:31:56;;;;;;;12.57;3.90;;;;;;;10.63;58.60;98515.78;5280344;28;20410;-73
2022/04/07 13:34:27;;;;;;;8.77;3.17;;;;;;;10.55;57.85;98498.13;5270555;28;20551;-73
2022/04/07 13:36:59;;;;;;;12.65;3.90;;;;;;;10.49;58.64;98477.34;5275778;28;20025;-71
2022/04/07 13:39:31;;;;;;;11.52;3.67;;;;;;;10.43;57.76;98490.63;5267190;28;20021;-74
2022/04/07 13:42:03;;;;;;;14.02;3.22;;;;;;;10.49;58.30;98490.41;5278444;28;20028;-75
2022/04/07 13:44:35;;;;;;;9.10;3.10;;;;;;;10.42;58.43;98502.84;5249630;28;20122;-73
2022/04/07 13:47:07;;;;;;;9.63;3.83;;;;;;;10.55;57.86;98503.66;5258192;28;20441;-75
2022/04/07 13:49:38;;;;;;;11.07;5.07;;;;;;;10.59;58.38;98501.81;5255210;28;20109;-73
2022/04/07 13:52:10;;;;;;;14.52;4.28;;;;;;;10.63;58.37;98513.00;5249190;28;20017;-75
2022/04/07 13:54:41;;;;;;;12.27;5.45;;;;;;;10.65;58.35;98507.94;5271417;28;20533;-73
2022/04/07 13:57:12;;;;;;;13.73;4.53;;;;;;;10.64;58.30;98520.19;5264358;28;20531;-73
2022/04/07 13:59:44;;;;;;;11.07;4.18;;;;;;;10.64;58.04;98506.31;5280372;28;20136;-73
2022/04/07 14:02:16;;;;;;;15.82;3.55;;;;;;;10.59;56.49;98526.75;5262107;28;20028;-73
2022/04/07 14:04:47;;;;;;;8.70;4.07;;;;;;;10.48;56.75;98505.38;5273061;28;20094;-72
2022/04/07 14:07:19;;;;;;;9.30;3.28;;;;;;;10.54;56.57;98504.03;5265981;28;20029;-73
2022/04/07 14:09:50;;;;;;;15.43;5.65;;;;;;;10.54;57.65;98512.34;5276298;28;20048;-74
2022/04/07 14:12:22;;;;;;;9.68;3.08;;;;;;;10.54;57.26;98520.66;5256960;28;20032;-75
2022/04/07 14:14:53;;;;;;;9.80;3.33;;;;;;;10.59;57.35;98531.50;5270135;28;20391;-75
2022/04/07 14:17:24;;;;;;;10.52;3.40;;;;;;;10.55;57.69;98531.38;5267593;28;20028;-75
2022/04/07 14:19:56;;;;;;;11.70;3.70;;;;;;;10.55;57.54;98528.59;5279905;28;20024;-75
2022/04/07 14:22:28;;;;;;;16.45;3.20;;;;;;;10.61;57.69;98543.06;5256224;28;20126;-77
2022/04/07 14:25:00;;;;;;;12.60;7.35;;;;;;;10.66;57.26;98540.06;5269890;28;20028;-78
2022/04/07 14:27:31;;;;;;;7.60;2.97;;;;;;;10.63;55.00;98532.41;5272824;28;20358;-77
2022/04/07 14:30:03;;;;;;;10.05;3.40;;;;;;;10.63;55.13;98538.78;5276133;28;20028;-79
2022/04/07 14:32:34;;;;;;;11.75;6.30;;;;;;;10.57;54.06;98534.59;5256230;28;20132;-79
2022/04/07 14:35:06;;;;;;;11.60;4.10;;;;;;;10.52;55.10;98528.50;5275517;28;20056;-79
2022/04/07 14:37:37;;;;;;;12.38;3.13;;;;;;;10.60;54.79;98553.31;5262712;28;20053;-79
2022/04/07 14:40:12;;;;;;;14.20;3.72;;;;;;;10.72;54.22;98538.66;5279917;28;20048;-78
2022/04/07 14:42:44;;;;;;;9.80;3.35;;;;;;;11.07;54.39;98535.41;5271955;28;20444;-75
2022/04/07 14:45:16;;;;;;;14.02;3.60;;;;;;;11.33;53.28;98526.69;5269143;28;20032;-73
2022/04/07 14:47:47;;;;;;;11.50;3.97;;;;;;;11.51;53.12;98555.75;5267810;28;20502;-74
2022/04/07 14:50:23;;;;;;;9.25;3.17;;;;;;;11.48;53.43;98548.16;5277308;28;20009;-75
2022/04/07 14:52:54;;;;;;;11.05;3.22;;;;;;;11.29;53.14;98557.06;5262359;28;20494;-74
2022/04/07 14:55:26;;;;;;;9.65;3.13;;;;;;;11.17;52.97;98546.03;5277113;28;20158;-74
2022/04/07 14:57:58;;;;;;;10.93;4.20;;;;;;;11.02;54.23;98563.38;5249404;28;20037;-77
2022/04/07 15:00:30;;;;;;;9.98;3.17;;;;;;;11.03;54.04;98556.66;5276462;28;20094;-76
2022/04/07 15:03:01;;;;;;;9.65;3.80;;;;;;;10.99;54.62;98539.09;5267143;28;20032;-74
2022/04/07 15:05:34;;;;;;;9.70;3.28;;;;;;;11.01;54.53;98561.75;5255705;28;20029;-76
2022/04/07 15:08:05;;;;;;;9.65;4.32;;;;;;;10.98;54.78;98559.69;5278255;28;20372;-74
2022/04/07 15:10:37;;;;;;;13.82;5.18;;;;;;;10.94;55.37;98555.97;5263759;28;20034;-76
2022/04/07 15:13:09;;;;;;;12.90;4.07;;;;;;;10.97;53.92;98553.31;5255470;28;20022;-75
2022/04/07 15:15:40;;;;;;;12.43;3.13;;;;;;;11.00;53.85;98577.59;5275914;28;20039;-74
2022/04/07 15:18:11;;;;;;;13.10;4.05;;;;;;;10.90;54.06;98591.91;5266586;28;20033;-75
2022/04/07 15:20:44;;;;;;;11.00;3.17;;;;;;;10.90;55.49;98569.75;5273351;28;20017;-75
2022/04/07 15:23:15;;;;;;;13.45;4.45;;;;;;;10.82;55.07;98574.25;5257344;28;20168;-73
2022/04/07 15:25:47;;;;;;;10.40;2.90;;;;;;;10.88;54.55;98572.84;5260394;28;20148;-72
2022/04/07 15:28:18;;;;;;;14.85;3.25;;;;;;;11.09;53.23;98577.44;5252052;28;20113;-72
2022/04/07 15:30:50;;;;;;;10.73;3.70;;;;;;;11.29;53.21;98582.06;5265157;28;20063;-72
2022/04/07 15:33:22;;;;;;;10.02;3.65;;;;;;;11.45;52.58;98578.56;5273028;28;20021;-75
2022/04/07 15:35:55;;;;;;;10.80;4.43;;;;;;;11.30;51.50;98574.56;5266392;28;20170;-75
2022/04/07 15:38:26;;;;;;;8.65;3.10;;;;;;;11.29;50.36;98568.19;5272126;28;20033;-74
2022/04/07 15:40:58;;;;;;;9.35;2.60;;;;;;;11.27;51.13;98578.00;5263180;28;20028;-76
2022/04/07 15:43:29;;;;;;;11.18;3.95;;;;;;;11.19;48.88;98576.97;5261568;28;20369;-76
2022/04/07 15:46:00;;;;;;;9.93;4.38;;;;;;;11.28;49.13;98579.66;5261362;28;20546;-76
2022/04/07 15:48:32;;;;;;;9.10;3.20;;;;;;;11.26;49.89;98621.59;5254636;28;20027;-75
2022/04/07 15:51:06;;;;;;;9.18;2.95;;;;;;;11.29;50.47;98587.59;5263918;28;20026;-75
2022/04/07 15:53:37;;;;;;;10.48;2.97;;;;;;;11.28;49.85;98577.66;5268635;28;20486;-74
2022/04/07 15:56:08;;;;;;;7.82;3.03;;;;;;;11.37;50.92;98579.50;5267666;28;20017;-74
2022/04/07 15:58:39;;;;;;;11.32;3.22;;;;;;;11.43;50.22;98598.34;5279694;28;20565;-73
2022/04/07 16:01:11;;;;;;;13.23;3.30;;;;;;;11.49;49.46;98608.03;5264403;28;20108;-74
2022/04/07 16:03:43;;;;;;;7.55;3.25;;;;;;;11.51;50.74;98616.03;5267700;28;20044;-74
2022/04/07 16:06:15;;;;;;;10.85;5.28;;;;;;;11.53;50.48;98608.16;5276928;28;20034;-73
2022/04/07 16:08:49;;;;;;;13.05;3.03;;;;;;;11.41;49.93;98603.44;5262223;28;20029;-73
2022/04/07 16:11:20;;;;;;;11.73;4.22;;;;;;;11.35;50.70;98612.34;5273347;28;20135;-76
2022/04/07 16:13:52;;;;;;;13.00;3.85;;;;;;;11.14;51.70;98593.06;5251223;28;20408;-78
2022/04/07 16:16:23;;;;;;;7.78;2.75;;;;;;;11.21;52.36;98607.97;5260633;28;20365;-76
2022/04/07 16:18:55;;;;;;;8.88;3.17;;;;;;;11.17;51.25;98607.06;5263141;28;20131;-76
2022/04/07 16:21:26;;;;;;;9.27;3.35;;;;;;;11.20;51.30;98631.34;5271761;28;20047;-76
2022/04/07 16:24:02;;;;;;;8.25;2.65;;;;;;;11.20;50.45;98650.75;5281369;28;20086;-76
2022/04/07 16:26:33;;;;;;;10.02;3.00;;;;;;;11.17;50.17;98640.34;5264943;28;20028;-75
2022/04/07 16:29:04;;;;;;;9.10;4.65;;;;;;;11.12;50.28;98645.31;5263903;28;20021;-75
2022/04/07 16:31:36;;;;;;;12.00;3.80;;;;;;;11.13;50.49;98633.88;5269199;28;20021;-75
2022/04/07 16:34:09;;;;;;;11.05;3.22;;;;;;;11.13;50.41;98633.06;5274887;28;20535;-76
2022/04/07 16:36:40;;;;;;;8.57;3.65;;;;;;;11.09;51.31;98644.88;5273349;28;20476;-75
2022/04/07 16:39:11;;;;;;;12.60;3.25;;;;;;;11.10;50.92;98629.81;5270211;28;20032;-75
2022/04/07 16:41:43;;;;;;;10.60;3.22;;;;;;;11.07;50.98;98636.06;5266863;28;20116;-75
2022/04/07 16:44:15;;;;;;;13.00;2.95;;;;;;;11.08;51.18;98642.41;5269510;28;20021;-75
2022/04/07 16:46:46;;;;;;;12.70;3.97;;;;;;;11.03;51.49;98628.78;5270023;28;20079;-75
2022/04/07 16:49:18;;;;;;;8.05;2.85;;;;;;;10.98;52.45;98627.03;5279116;28;20383;-75
2022/04/07 16:51:49;;;;;;;15.63;3.20;;;;;;;11.01;51.54;98633.88;5267044;28;20082;-75
2022/04/07 16:54:21;;;;;;;9.65;3.92;;;;;;;11.06;50.84;98631.66;5257558;28;20024;-74
2022/04/07 16:56:52;;;;;;;9.73;3.20;;;;;;;11.13;51.28;98650.50;5275344;28;20048;-75
2022/04/07 16:59:24;;;;;;;12.18;3.22;;;;;;;11.23;51.37;98649.25;5279351;28;20025;-75
2022/04/07 17:01:55;;;;;;;14.63;3.85;;;;;;;11.26;51.37;98670.75;5265949;28;20025;-75
2022/04/07 17:04:27;;;;;;;8.88;3.00;;;;;;;11.24;50.47;98659.97;5257833;28;20414;-75
2022/04/07 17:06:58;;;;;;;12.27;3.47;;;;;;;11.26;50.74;98666.00;5269193;28;20453;-73
2022/04/07 17:09:29;;;;;;;14.20;4.45;;;;;;;11.20;49.55;98661.84;5270609;28;20108;-72
2022/04/07 17:12:07;;;;;;;13.43;5.03;;;;;;;11.20;50.59;98683.25;5279583;28;20021;-72
2022/04/07 17:14:38;;;;;;;11.63;3.85;;;;;;;11.10;50.94;98707.50;5272434;28;20115;-73
2022/04/07 17:17:09;;;;;;;8.02;3.08;;;;;;;11.04;50.96;98688.63;5272919;28;20032;-72
2022/04/07 17:19:41;;;;;;;10.27;3.30;;;;;;;11.03;51.27;98681.47;5280247;28;20041;-73
2022/04/07 17:22:12;;;;;;;13.73;3.10;;;;;;;11.03;51.95;98706.44;5263111;28;20024;-73
2022/04/07 17:24:44;;;;;;;10.73;2.95;;;;;;;11.01;50.67;98700.44;5276191;28;20028;-73
2022/04/07 17:27:15;;;;;;;9.30;3.10;;;;;;;10.92;50.72;98708.06;5264101;28;20471;-74
2022/04/07 17:29:46;;;;;;;11.15;3.47;;;;;;;10.92;51.54;98713.59;5280331;28;20103;-74
